createdAt,value
2023-03-28T00:01:09.852Z,13.46
2023-03-28T00:03:42.629Z,13.41
2023-03-28T00:06:16.692Z,13.36
2023-03-28T00:08:46.154Z,13.30
2023-03-28T00:11:21.324Z,13.29
2023-03-28T00:13:58.350Z,13.26
2023-03-28T00:16:33.171Z,13.25
2023-03-28T00:19:04.367Z,13.21
2023-03-28T00:21:34.499Z,13.19
2023-03-28T00:24:04.824Z,13.21
2023-03-28T00:26:35.691Z,13.23
2023-03-28T00:29:06.103Z,13.26
2023-03-28T00:31:35.353Z,13.26
2023-03-28T00:34:04.100Z,13.27
2023-03-28T00:36:33.023Z,13.27
2023-03-28T00:39:02.451Z,13.26
2023-03-28T00:41:42.531Z,13.26
2023-03-28T00:44:42.020Z,13.25
2023-03-28T00:47:15.910Z,13.23
2023-03-28T00:49:45.168Z,13.20
2023-03-28T00:52:15.615Z,13.19
2023-03-28T00:54:44.400Z,13.18
2023-03-28T00:57:13.303Z,13.16
2023-03-28T00:59:41.639Z,13.12
2023-03-28T01:02:11.253Z,13.13
2023-03-28T01:04:49.643Z,13.14
2023-03-28T01:07:21.776Z,13.15
2023-03-28T01:09:50.368Z,13.14
2023-03-28T01:12:18.864Z,13.13
2023-03-28T01:14:48.816Z,13.12
2023-03-28T01:17:17.230Z,13.13
2023-03-28T01:20:01.208Z,13.12
2023-03-28T01:23:07.559Z,13.08
2023-03-28T01:25:55.185Z,13.02
2023-03-28T01:28:24.214Z,12.97
2023-03-28T01:31:24.042Z,12.93
2023-03-28T01:34:29.387Z,12.89
2023-03-28T01:37:28.370Z,12.86
2023-03-28T01:40:27.596Z,12.80
2023-03-28T01:43:25.524Z,12.78
2023-03-28T01:46:12.293Z,12.74
2023-03-28T01:49:19.826Z,12.71
2023-03-28T01:52:25.614Z,12.68
2023-03-28T01:55:19.285Z,12.66
2023-03-28T01:58:20.380Z,12.64
2023-03-28T02:00:59.473Z,12.61
2023-03-28T02:03:38.068Z,12.60
2023-03-28T02:06:13.787Z,12.60
2023-03-28T02:08:43.728Z,12.61
2023-03-28T02:11:24.808Z,12.61
2023-03-28T02:14:31.150Z,12.59
2023-03-28T02:17:27.987Z,12.50
2023-03-28T02:20:30.003Z,12.53
2023-03-28T02:23:07.872Z,12.53
2023-03-28T02:25:48.573Z,12.53
2023-03-28T02:28:42.628Z,12.52
2023-03-28T02:31:29.798Z,12.51
2023-03-28T02:33:58.957Z,12.51
2023-03-28T02:36:52.906Z,12.51
2023-03-28T02:39:29.001Z,12.50
2023-03-28T02:42:09.054Z,12.50
2023-03-28T02:44:41.889Z,12.49
2023-03-28T02:47:29.224Z,12.52
2023-03-28T02:50:00.035Z,12.52
2023-03-28T02:52:52.398Z,12.54
2023-03-28T02:55:45.048Z,12.58
2023-03-28T02:58:47.689Z,12.62
2023-03-28T03:01:15.975Z,12.66
2023-03-28T03:03:46.090Z,12.69
2023-03-28T03:06:14.382Z,12.73
2023-03-28T03:08:42.583Z,12.76
2023-03-28T03:11:12.237Z,12.80
2023-03-28T03:13:40.558Z,12.78
2023-03-28T03:16:09.608Z,12.75
2023-03-28T03:18:38.836Z,12.85
2023-03-28T03:21:07.276Z,12.89
2023-03-28T03:23:37.728Z,12.93
2023-03-28T03:26:07.180Z,12.95
2023-03-28T03:28:42.945Z,12.97
2023-03-28T03:31:11.522Z,12.98
2023-03-28T03:34:07.757Z,13.00
2023-03-28T03:36:40.693Z,13.00
2023-03-28T03:39:09.989Z,13.01
2023-03-28T03:41:38.376Z,13.03
2023-03-28T03:44:07.586Z,13.03
2023-03-28T03:46:35.920Z,13.04
2023-03-28T03:49:09.958Z,13.04
2023-03-28T03:51:39.737Z,13.04
2023-03-28T03:54:08.323Z,13.04
2023-03-28T03:56:39.425Z,13.05
2023-03-28T03:59:08.076Z,13.04
2023-03-28T04:01:44.301Z,13.05
2023-03-28T04:04:28.359Z,13.06
2023-03-28T04:07:04.709Z,13.07
2023-03-28T04:09:33.076Z,13.07
2023-03-28T04:12:06.123Z,13.06
2023-03-28T04:14:43.323Z,13.08
2023-03-28T04:17:35.329Z,13.09
2023-03-28T04:20:14.661Z,13.10
2023-03-28T04:23:06.031Z,13.12
2023-03-28T04:25:35.337Z,13.14
2023-03-28T04:28:26.144Z,13.15
2023-03-28T04:31:00.306Z,13.15
2023-03-28T04:33:34.837Z,13.17
2023-03-28T04:36:06.070Z,13.18
2023-03-28T04:38:37.396Z,13.18
2023-03-28T04:41:26.338Z,13.20
2023-03-28T04:44:30.064Z,13.21
2023-03-28T04:47:03.129Z,13.20
2023-03-28T04:49:32.067Z,13.21
2023-03-28T04:52:02.152Z,13.24
2023-03-28T04:54:30.918Z,13.26
2023-03-28T04:57:07.350Z,13.29
2023-03-28T04:59:44.197Z,13.32
2023-03-28T05:02:16.851Z,13.35
2023-03-28T05:04:53.522Z,13.38
2023-03-28T05:07:21.902Z,13.40
2023-03-28T05:09:50.354Z,13.41
2023-03-28T05:12:21.513Z,13.40
2023-03-28T05:15:05.050Z,13.41
2023-03-28T05:17:34.498Z,13.43
2023-03-28T05:20:23.157Z,13.44
2023-03-28T05:22:53.620Z,13.46
2023-03-28T05:25:22.039Z,13.44
2023-03-28T05:27:51.528Z,13.41
2023-03-28T05:30:19.987Z,13.39
2023-03-28T05:32:49.827Z,13.37
2023-03-28T05:35:18.238Z,13.36
2023-03-28T05:37:47.125Z,13.32
2023-03-28T05:40:15.689Z,13.29
2023-03-28T05:42:44.772Z,13.24
2023-03-28T05:45:17.380Z,13.18
2023-03-28T05:48:09.081Z,13.12
2023-03-28T05:50:40.849Z,13.05
2023-03-28T05:53:09.229Z,12.95
2023-03-28T05:55:37.591Z,12.85
2023-03-28T05:58:07.937Z,12.70
2023-03-28T06:00:42.860Z,12.53
2023-03-28T06:03:16.425Z,12.38
2023-03-28T06:05:46.243Z,12.26
2023-03-28T06:08:25.393Z,12.15
2023-03-28T06:11:00.739Z,12.05
2023-03-28T06:13:33.313Z,11.95
2023-03-28T06:16:02.219Z,11.84
2023-03-28T06:18:33.432Z,11.73
2023-03-28T06:21:02.647Z,11.63
2023-03-28T06:23:31.260Z,11.55
2023-03-28T06:26:00.289Z,11.48
2023-03-28T06:28:33.497Z,11.39
2023-03-28T06:31:19.918Z,11.28
2023-03-28T06:33:48.479Z,11.21
2023-03-28T06:36:21.685Z,11.14
2023-03-28T06:38:52.472Z,11.08
2023-03-28T06:41:21.176Z,11.01
2023-03-28T06:43:49.574Z,10.98
2023-03-28T06:46:42.973Z,10.94
2023-03-28T06:49:12.701Z,10.91
2023-03-28T06:51:59.640Z,10.89
2023-03-28T06:54:29.112Z,10.85
2023-03-28T06:56:57.930Z,10.82
2023-03-28T06:59:26.296Z,10.81
2023-03-28T07:01:58.471Z,10.79
2023-03-28T07:04:35.052Z,10.81
2023-03-28T07:07:04.409Z,10.85
2023-03-28T07:09:32.945Z,10.91
2023-03-28T07:12:12.568Z,10.96
2023-03-28T07:14:44.816Z,10.98
2023-03-28T07:17:13.076Z,10.99
2023-03-28T07:19:46.145Z,11.01
